createdAt,value
2018-08-24T00:01:35.549Z,73.23
2018-08-24T00:04:08.273Z,73.55
2018-08-24T00:06:38.077Z,73.85
2018-08-24T00:09:12.576Z,74.19
2018-08-24T00:11:41.354Z,73.75
2018-08-24T00:14:10.997Z,74.23
2018-08-24T00:16:40.779Z,74.32
2018-08-24T00:19:15.432Z,75.07
2018-08-24T00:21:44.617Z,75.96
2018-08-24T00:24:13.888Z,75.80
2018-08-24T00:26:42.448Z,75.04
2018-08-24T00:29:11.420Z,74.64
2018-08-24T00:31:40.486Z,74.27
2018-08-24T00:34:09.043Z,73.66
2018-08-24T00:36:37.655Z,74.29
2018-08-24T00:39:08.108Z,73.96
2018-08-24T00:41:36.950Z,73.34
2018-08-24T00:44:05.589Z,73.65
2018-08-24T00:46:34.160Z,73.91
2018-08-24T00:49:02.893Z,73.88
2018-08-24T00:51:31.503Z,72.86
2018-08-24T00:54:00.064Z,72.23
2018-08-24T00:56:28.823Z,72.62
2018-08-24T00:58:57.375Z,72.13
2018-08-24T01:01:26.059Z,72.75
2018-08-24T01:03:54.603Z,72.49
2018-08-24T01:06:23.132Z,73.43
2018-08-24T01:08:51.825Z,73.88
2018-08-24T01:11:20.472Z,73.65
2018-08-24T01:13:51.651Z,73.20
2018-08-24T01:16:25.668Z,74.37
2018-08-24T01:18:54.269Z,74.35
2018-08-24T01:21:22.839Z,74.34
2018-08-24T01:23:51.676Z,74.90
2018-08-24T01:26:22.819Z,75.01
2018-08-24T01:28:52.806Z,74.99
2018-08-24T01:31:22.293Z,74.46
2018-08-24T01:33:50.839Z,73.85
2018-08-24T01:36:19.409Z,74.59
2018-08-24T01:38:47.976Z,74.36
2018-08-24T01:41:16.552Z,74.52
2018-08-24T01:43:45.120Z,74.56
2018-08-24T01:46:15.047Z,74.02
2018-08-24T01:48:43.660Z,74.80
2018-08-24T01:51:12.263Z,75.99
2018-08-24T01:53:40.988Z,74.84
2018-08-24T01:56:09.572Z,75.17
2018-08-24T01:58:38.129Z,75.29
2018-08-24T02:01:06.703Z,75.07
2018-08-24T02:03:35.484Z,74.60
2018-08-24T02:06:08.080Z,74.11
2018-08-24T02:08:37.732Z,73.97
2018-08-24T02:11:10.899Z,75.69
2018-08-24T02:13:45.913Z,75.74
2018-08-24T02:16:14.600Z,75.68
2018-08-24T02:18:48.275Z,75.10
2018-08-24T02:21:21.928Z,75.14
2018-08-24T02:23:50.464Z,75.79
2018-08-24T02:26:18.999Z,75.43
2018-08-24T02:28:47.551Z,75.65
2018-08-24T02:31:16.159Z,76.22
2018-08-24T02:33:44.673Z,76.07
2018-08-24T02:36:13.413Z,76.56
2018-08-24T02:38:41.940Z,75.93
2018-08-24T02:41:10.507Z,76.09
2018-08-24T02:43:39.045Z,76.11
2018-08-24T02:46:07.666Z,74.72
2018-08-24T02:48:36.209Z,74.75
2018-08-24T02:51:04.872Z,74.66
2018-08-24T02:53:33.481Z,74.03
2018-08-24T02:56:02.185Z,73.64
2018-08-24T02:58:30.716Z,74.26
2018-08-24T03:00:59.335Z,74.07
2018-08-24T03:03:27.892Z,73.55
2018-08-24T03:05:56.443Z,73.93
2018-08-24T03:08:25.090Z,74.42
2018-08-24T03:10:53.550Z,74.87
2018-08-24T03:13:22.157Z,74.25
2018-08-24T03:15:50.692Z,74.55
2018-08-24T03:18:19.244Z,74.25
2018-08-24T03:20:47.828Z,74.68
2018-08-24T03:23:16.459Z,74.67
2018-08-24T03:25:44.993Z,74.50
2018-08-24T03:28:13.542Z,74.43
2018-08-24T03:30:42.230Z,74.73
2018-08-24T03:33:10.812Z,75.03
2018-08-24T03:35:42.428Z,75.28
2018-08-24T03:38:11.051Z,75.63
2018-08-24T03:40:39.584Z,76.44
2018-08-24T03:43:08.140Z,76.82
2018-08-24T03:45:36.959Z,76.71
2018-08-24T03:48:06.383Z,76.94
2018-08-24T03:50:35.253Z,76.61
2018-08-24T03:53:04.693Z,76.28
2018-08-24T03:55:37.280Z,75.61
2018-08-24T03:58:07.265Z,75.84
2018-08-24T04:00:37.781Z,76.21
2018-08-24T04:03:06.351Z,75.68
2018-08-24T04:05:34.905Z,75.99
2018-08-24T04:08:03.463Z,75.67
2018-08-24T04:10:32.026Z,75.80
2018-08-24T04:13:00.619Z,75.72
2018-08-24T04:15:29.368Z,75.19
2018-08-24T04:17:57.917Z,75.16
2018-08-24T04:20:26.458Z,75.43
2018-08-24T04:22:55.042Z,75.53
2018-08-24T04:25:23.608Z,75.90
2018-08-24T04:27:52.152Z,75.48
2018-08-24T04:30:20.692Z,75.51
2018-08-24T04:32:49.256Z,75.54
2018-08-24T04:35:17.817Z,74.81
2018-08-24T04:37:46.403Z,74.11
2018-08-24T04:40:15.000Z,73.84
2018-08-24T04:42:43.562Z,73.55
2018-08-24T04:45:12.161Z,73.29
2018-08-24T04:47:40.700Z,72.79
2018-08-24T04:50:09.249Z,72.71
2018-08-24T04:52:37.896Z,73.84
2018-08-24T04:55:06.455Z,73.94
2018-08-24T04:57:34.990Z,74.03
2018-08-24T05:00:03.585Z,73.98
2018-08-24T05:02:32.119Z,73.34
2018-08-24T05:05:00.688Z,73.00
2018-08-24T05:07:29.210Z,72.74
2018-08-24T05:09:57.767Z,73.24
2018-08-24T05:13:00.928Z,73.08
2018-08-24T05:15:29.489Z,73.47
2018-08-24T05:17:58.087Z,72.79
2018-08-24T05:20:26.634Z,73.36
2018-08-24T05:22:55.178Z,72.80
2018-08-24T05:25:23.751Z,72.38
2018-08-24T05:27:52.284Z,71.78
2018-08-24T05:30:20.834Z,72.26
2018-08-24T05:32:50.210Z,71.16
2018-08-24T05:42:04.844Z,71.50
2018-08-24T05:48:05.825Z,74.09
2018-08-24T05:55:03.124Z,73.53
2018-08-24T05:57:31.673Z,73.44
2018-08-24T06:04:02.539Z,73.61
2018-08-24T06:06:31.127Z,72.56
2018-08-24T06:09:04.891Z,71.63
2018-08-24T06:11:33.421Z,70.22
2018-08-24T06:14:01.986Z,69.99
2018-08-24T06:16:30.556Z,67.86
2018-08-24T06:18:59.129Z,67.11
2018-08-24T06:21:27.676Z,67.17
2018-08-24T06:23:56.220Z,66.57
2018-08-24T06:26:24.809Z,66.00
2018-08-24T06:28:53.349Z,65.71
2018-08-24T06:31:21.900Z,65.51
2018-08-24T06:33:50.473Z,65.38
2018-08-24T06:36:19.052Z,66.04
2018-08-24T06:38:47.636Z,66.84
2018-08-24T06:41:16.208Z,68.63
2018-08-24T06:43:44.748Z,69.66
2018-08-24T06:46:13.311Z,70.63
2018-08-24T06:48:41.848Z,71.56
2018-08-24T06:51:10.400Z,71.96
2018-08-24T06:53:38.990Z,72.23
2018-08-24T06:56:07.525Z,70.03
2018-08-24T06:58:36.076Z,69.34
2018-08-24T07:01:04.652Z,68.66
2018-08-24T07:03:33.262Z,67.45
2018-08-24T07:06:01.864Z,66.45
2018-08-24T07:08:30.452Z,66.42
2018-08-24T07:10:58.991Z,66.16
2018-08-24T07:13:27.610Z,66.29
2018-08-24T07:15:56.140Z,66.30
2018-08-24T07:21:27.141Z,67.80
2018-08-24T07:23:55.676Z,69.08
2018-08-24T07:26:24.232Z,67.12
2018-08-24T07:28:52.797Z,66.24
2018-08-24T07:31:21.340Z,65.78
2018-08-24T07:33:49.915Z,64.63
2018-08-24T07:36:18.464Z,64.27
2018-08-24T07:38:47.065Z,63.00
2018-08-24T07:41:15.699Z,62.22
2018-08-24T07:43:44.267Z,62.21
2018-08-24T07:46:12.832Z,62.01
2018-08-24T07:48:41.361Z,62.34
2018-08-24T07:51:09.905Z,61.97
2018-08-24T07:53:38.455Z,61.05
2018-08-24T08:01:19.323Z,59.49
2018-08-24T08:03:47.928Z,59.81
2018-08-24T08:06:16.480Z,58.97
2018-08-24T08:08:45.040Z,59.06
2018-08-24T08:11:13.594Z,58.23
2018-08-24T08:13:42.152Z,57.69
2018-08-24T08:16:10.687Z,56.27
2018-08-24T08:18:39.421Z,55.47
2018-08-24T08:21:08.091Z,54.19
2018-08-24T08:23:36.910Z,54.95
2018-08-24T08:26:08.113Z,53.80
2018-08-24T08:28:36.767Z,54.13
2018-08-24T08:31:05.362Z,53.99
2018-08-24T08:33:33.906Z,54.40
2018-08-24T08:36:02.596Z,54.09
2018-08-24T08:38:31.144Z,53.53
2018-08-24T08:40:59.703Z,53.82
2018-08-24T08:43:28.273Z,53.31
2018-08-24T08:45:56.837Z,53.77
2018-08-24T08:48:25.367Z,53.41
2018-08-24T08:50:53.928Z,52.62
2018-08-24T08:53:22.508Z,53.67
2018-08-24T08:55:51.053Z,52.68
2018-08-24T08:58:19.596Z,52.51
2018-08-24T09:00:48.148Z,54.00
2018-08-24T09:03:16.663Z,53.06
2018-08-24T09:05:45.240Z,52.88
2018-08-24T09:08:13.764Z,52.06
2018-08-24T09:10:42.301Z,52.92
2018-08-24T09:13:10.850Z,53.14
2018-08-24T09:15:39.460Z,53.34
2018-08-24T09:18:13.088Z,52.94
2018-08-24T09:20:46.840Z,52.34
2018-08-24T09:23:20.536Z,52.11
2018-08-24T09:25:54.349Z,51.91
2018-08-24T09:28:27.970Z,52.60
2018-08-24T09:31:01.565Z,52.23
2018-08-24T09:33:30.085Z,53.66
2018-08-24T09:36:02.225Z,53.68
2018-08-24T09:38:32.800Z,53.47
2018-08-24T09:41:01.487Z,52.70
2018-08-24T09:43:35.274Z,53.52
2018-08-24T09:46:03.866Z,54.38
2018-08-24T09:48:36.543Z,53.97
2018-08-24T09:51:10.408Z,54.29
2018-08-24T09:53:44.151Z,53.99
2018-08-24T09:56:12.766Z,53.69
2018-08-24T09:58:41.352Z,53.58
2018-08-24T10:01:15.070Z,53.76
2018-08-24T10:03:48.645Z,53.83
2018-08-24T10:06:24.237Z,53.67
2018-08-24T10:08:52.790Z,53.38
2018-08-24T10:11:21.341Z,53.03
2018-08-24T10:13:49.876Z,53.86
2018-08-24T10:16:18.402Z,54.68
2018-08-24T10:18:47.011Z,55.08
2018-08-24T10:21:15.808Z,55.18
2018-08-24T10:23:44.365Z,55.52
2018-08-24T10:26:12.904Z,54.68
2018-08-24T10:28:41.452Z,55.54
2018-08-24T10:31:10.047Z,55.87
2018-08-24T10:33:38.803Z,56.36
2018-08-24T10:36:07.406Z,56.44
2018-08-24T10:38:36.342Z,55.75
2018-08-24T10:41:04.982Z,55.41
2018-08-24T10:43:33.560Z,55.25
2018-08-24T10:46:02.115Z,55.29
2018-08-24T10:48:30.646Z,55.00
2018-08-24T10:50:59.235Z,55.74
2018-08-24T10:53:27.818Z,56.37
2018-08-24T10:55:56.436Z,56.55
2018-08-24T10:58:24.945Z,56.27
2018-08-24T11:00:53.493Z,56.35
2018-08-24T11:03:22.213Z,56.31
2018-08-24T11:05:50.763Z,56.21
2018-08-24T11:08:19.365Z,56.00
2018-08-24T11:10:47.898Z,56.26
2018-08-24T11:13:16.473Z,55.60
2018-08-24T11:15:49.048Z,56.84
2018-08-24T11:18:18.083Z,55.59
2018-08-24T11:20:46.668Z,55.73
2018-08-24T11:23:15.252Z,55.75
2018-08-24T11:25:43.856Z,54.91
2018-08-24T11:28:12.459Z,55.38
2018-08-24T11:30:41.009Z,55.91
2018-08-24T11:33:09.661Z,55.58
2018-08-24T11:35:38.244Z,55.94
2018-08-24T11:38:06.840Z,55.77
2018-08-24T11:40:35.409Z,55.76
2018-08-24T11:43:04.018Z,55.56
2018-08-24T11:45:32.580Z,54.34
2018-08-24T11:48:01.184Z,55.09
2018-08-24T11:50:29.790Z,54.93
2018-08-24T11:52:58.343Z,54.71
2018-08-24T11:55:26.928Z,54.37
2018-08-24T11:57:55.520Z,53.87
2018-08-24T12:00:30.348Z,53.50
2018-08-24T12:03:00.187Z,52.77
2018-08-24T12:05:28.752Z,52.49
2018-08-24T12:07:57.469Z,52.34
2018-08-24T12:10:25.973Z,52.20
2018-08-24T12:12:54.539Z,52.11
2018-08-24T12:15:23.121Z,52.39
2018-08-24T12:17:51.747Z,51.73
2018-08-24T12:20:20.283Z,51.57
2018-08-24T12:22:48.904Z,51.46
2018-08-24T12:25:17.478Z,50.96
2018-08-24T12:27:46.027Z,51.28
2018-08-24T12:30:14.600Z,51.13
2018-08-24T12:32:43.175Z,51.08
2018-08-24T12:35:11.762Z,51.65
2018-08-24T12:37:48.245Z,51.69
2018-08-24T12:40:17.167Z,50.86
2018-08-24T12:42:45.883Z,50.99
2018-08-24T12:45:14.449Z,49.97
2018-08-24T12:47:43.045Z,49.34
2018-08-24T12:50:11.648Z,48.44
2018-08-24T12:52:40.248Z,47.96
2018-08-24T12:55:08.808Z,48.01
2018-08-24T12:57:37.414Z,48.16
2018-08-24T13:00:06.013Z,47.65
2018-08-24T13:02:34.557Z,47.31
2018-08-24T13:05:03.137Z,47.46
2018-08-24T13:07:32.595Z,46.41
2018-08-24T13:10:01.174Z,47.16
2018-08-24T13:12:29.719Z,46.52
2018-08-24T13:14:59.144Z,45.67
2018-08-24T13:17:27.708Z,44.75
2018-08-24T13:19:56.259Z,44.80
2018-08-24T13:22:24.824Z,44.51
2018-08-24T13:24:53.537Z,45.06
2018-08-24T13:27:22.192Z,45.56
2018-08-24T13:29:50.796Z,45.49
2018-08-24T13:32:19.343Z,45.80
2018-08-24T13:34:47.880Z,46.09
2018-08-24T13:37:16.460Z,46.84
2018-08-24T13:39:45.042Z,46.84
2018-08-24T13:42:13.654Z,46.30
2018-08-24T13:44:42.243Z,47.32
2018-08-24T13:47:10.842Z,47.57
2018-08-24T13:49:39.400Z,47.75
2018-08-24T13:52:11.002Z,47.22
2018-08-24T13:54:39.631Z,47.32
2018-08-24T13:57:08.206Z,47.67
2018-08-24T13:59:36.832Z,46.79
2018-08-24T14:02:05.516Z,46.52
2018-08-24T14:04:34.173Z,47.02
2018-08-24T14:07:02.748Z,47.48
2018-08-24T14:09:31.317Z,47.95
2018-08-24T14:11:59.869Z,47.61
2018-08-24T14:14:28.598Z,46.91
2018-08-24T14:16:57.158Z,47.72
2018-08-24T14:19:25.804Z,47.55
2018-08-24T14:21:54.423Z,47.14
2018-08-24T14:24:22.981Z,47.59
2018-08-24T14:26:51.560Z,47.48
2018-08-24T14:29:20.239Z,48.30
2018-08-24T14:31:48.920Z,48.54
2018-08-24T14:34:17.510Z,47.13
2018-08-24T14:36:46.113Z,47.54
2018-08-24T14:39:14.688Z,47.64
2018-08-24T14:41:43.355Z,47.39
2018-08-24T14:44:11.965Z,47.93
2018-08-24T14:46:40.772Z,47.89
2018-08-24T14:49:09.317Z,48.34
2018-08-24T14:51:37.872Z,48.31
2018-08-24T14:54:06.565Z,48.35
2018-08-24T14:56:35.273Z,49.48
2018-08-24T14:59:03.857Z,48.87
2018-08-24T15:01:32.467Z,49.01
2018-08-24T15:04:01.006Z,48.71
2018-08-24T15:06:29.567Z,49.16
2018-08-24T15:08:58.140Z,49.57
2018-08-24T15:11:26.683Z,49.95
2018-08-24T15:13:55.234Z,49.13
2018-08-24T15:16:23.822Z,49.24
2018-08-24T15:18:52.373Z,48.80
2018-08-24T15:21:20.914Z,49.03
2018-08-24T15:23:49.481Z,49.06
2018-08-24T15:26:18.073Z,50.20
2018-08-24T15:28:46.709Z,50.58
2018-08-24T15:31:16.143Z,49.76
2018-08-24T15:33:45.545Z,50.62
2018-08-24T15:36:14.093Z,50.18
2018-08-24T15:38:42.652Z,50.36
2018-08-24T15:41:11.208Z,50.42
2018-08-24T15:43:39.767Z,50.86
2018-08-24T15:46:08.449Z,50.75
2018-08-24T15:48:36.980Z,50.24
2018-08-24T15:51:05.876Z,50.59
2018-08-24T15:53:34.463Z,50.74
2018-08-24T15:56:03.056Z,50.47
2018-08-24T15:58:31.628Z,50.31
2018-08-24T16:01:00.198Z,50.31
2018-08-24T16:03:28.801Z,49.63
2018-08-24T16:05:57.507Z,49.23
2018-08-24T16:08:26.111Z,49.50
2018-08-24T16:10:54.696Z,50.16
2018-08-24T16:13:23.313Z,50.26
2018-08-24T16:15:51.869Z,50.16
2018-08-24T16:21:23.036Z,50.59
2018-08-24T16:23:51.716Z,49.90
2018-08-24T16:26:23.310Z,49.67
2018-08-24T16:28:52.418Z,49.87
2018-08-24T16:31:21.138Z,48.88
2018-08-24T16:33:49.813Z,48.47
2018-08-24T16:36:18.388Z,48.59
2018-08-24T16:38:46.988Z,48.76
2018-08-24T16:41:15.512Z,49.11
2018-08-24T16:43:44.180Z,49.85
2018-08-24T16:46:12.740Z,50.01
2018-08-24T16:48:41.370Z,50.00
2018-08-24T16:51:10.012Z,50.50
2018-08-24T16:53:38.540Z,51.45
2018-08-24T16:56:07.284Z,50.97
2018-08-24T16:58:35.894Z,51.96
2018-08-24T17:01:04.857Z,52.27
2018-08-24T17:03:33.449Z,51.59
2018-08-24T17:06:01.988Z,52.42
2018-08-24T17:08:30.659Z,52.90
2018-08-24T17:10:59.433Z,52.89
2018-08-24T17:13:27.972Z,52.43
2018-08-24T17:15:56.541Z,53.16
2018-08-24T17:18:25.095Z,53.36
2018-08-24T17:20:53.755Z,53.58
2018-08-24T17:23:23.216Z,53.87
2018-08-24T17:25:51.763Z,54.14
2018-08-24T17:28:20.340Z,54.64
2018-08-24T17:30:48.941Z,54.29
2018-08-24T17:33:17.501Z,54.42
2018-08-24T17:35:46.141Z,54.52
2018-08-24T17:38:14.706Z,54.47
2018-08-24T17:40:43.258Z,54.83
2018-08-24T17:43:11.799Z,53.80
2018-08-24T17:45:40.324Z,53.45
2018-08-24T17:48:09.094Z,53.41
2018-08-24T17:50:37.924Z,53.28
2018-08-24T17:53:06.535Z,53.98
2018-08-24T17:55:35.092Z,54.28
2018-08-24T17:58:03.652Z,53.83
2018-08-24T18:00:32.280Z,53.94
2018-08-24T18:03:00.828Z,53.49
2018-08-24T18:05:29.593Z,53.33
2018-08-24T18:07:58.170Z,53.94
2018-08-24T18:10:26.713Z,53.90
2018-08-24T18:12:55.263Z,53.33
2018-08-24T18:15:23.851Z,53.36
2018-08-24T18:17:52.437Z,53.61
2018-08-24T18:20:20.988Z,53.76
2018-08-24T18:22:49.575Z,53.61
2018-08-24T18:25:18.163Z,53.93
2018-08-24T18:27:46.816Z,53.33
2018-08-24T18:30:15.590Z,53.91
2018-08-24T18:32:44.077Z,53.92
2018-08-24T18:35:12.664Z,53.94
2018-08-24T18:37:41.208Z,54.14
2018-08-24T18:40:09.766Z,53.81
2018-08-24T18:42:38.363Z,54.36
2018-08-24T18:45:06.994Z,54.19
2018-08-24T18:47:36.005Z,54.79
2018-08-24T18:50:04.672Z,54.99
2018-08-24T18:52:33.232Z,55.10
2018-08-24T18:55:01.845Z,54.41
2018-08-24T18:57:30.411Z,54.62
2018-08-24T18:59:58.983Z,54.58
2018-08-24T19:02:27.529Z,54.41
2018-08-24T19:04:56.069Z,55.09
2018-08-24T19:07:24.758Z,54.62
2018-08-24T19:09:53.441Z,59.09
2018-08-24T19:12:27.651Z,62.97
2018-08-24T19:14:57.115Z,64.94
2018-08-24T19:17:30.748Z,63.87
2018-08-24T19:20:04.493Z,64.47
2018-08-24T19:22:33.067Z,65.88
2018-08-24T19:25:01.784Z,65.76
2018-08-24T19:27:35.519Z,65.70
2018-08-24T19:30:09.247Z,65.28
2018-08-24T19:32:38.115Z,66.24
2018-08-24T19:35:06.679Z,65.94
2018-08-24T19:37:35.361Z,65.66
2018-08-24T19:40:09.136Z,65.70
2018-08-24T19:42:37.699Z,65.30
2018-08-24T19:45:06.389Z,65.29
2018-08-24T19:47:40.686Z,64.43
2018-08-24T19:50:09.244Z,64.51
2018-08-24T19:52:37.814Z,64.95
2018-08-24T19:55:06.524Z,64.24
2018-08-24T19:57:40.191Z,64.27
2018-08-24T20:00:08.808Z,64.11
2018-08-24T20:02:38.297Z,64.44
2018-08-24T20:05:07.150Z,64.40
2018-08-24T20:07:41.016Z,64.18
2018-08-24T20:10:11.083Z,63.27
2018-08-24T20:12:40.528Z,61.92
2018-08-24T20:15:14.368Z,61.25
2018-08-24T20:17:42.994Z,61.19
2018-08-24T20:20:11.555Z,60.85
2018-08-24T20:22:40.130Z,61.88
2018-08-24T20:25:08.710Z,63.42
2018-08-24T20:27:37.316Z,64.49
2018-08-24T20:30:06.192Z,64.51
2018-08-24T20:32:35.496Z,65.06
2018-08-24T20:35:04.089Z,66.44
2018-08-24T20:37:32.652Z,66.75
2018-08-24T20:40:01.312Z,67.39
2018-08-24T20:42:29.811Z,69.48
2018-08-24T20:44:58.375Z,70.07
2018-08-24T20:47:27.345Z,71.22
2018-08-24T20:49:55.845Z,72.16
2018-08-24T20:52:24.399Z,71.88
2018-08-24T20:54:52.981Z,72.27
2018-08-24T20:57:21.567Z,72.82
2018-08-24T20:59:50.343Z,73.36
2018-08-24T21:02:18.961Z,73.35
2018-08-24T21:04:47.544Z,73.38
2018-08-24T21:07:16.109Z,74.07
2018-08-24T21:09:44.653Z,73.37
2018-08-24T21:12:13.422Z,74.27
2018-08-24T21:14:42.040Z,73.69
2018-08-24T21:17:10.740Z,74.82
2018-08-24T21:19:39.320Z,75.09
2018-08-24T21:22:07.872Z,75.09
2018-08-24T21:24:36.497Z,74.96
2018-08-24T21:27:05.367Z,75.34
2018-08-24T21:29:34.305Z,74.98
2018-08-24T21:32:03.154Z,75.20
2018-08-24T21:34:31.696Z,75.66
2018-08-24T21:37:01.352Z,76.36
2018-08-24T21:39:30.801Z,75.65
2018-08-24T21:41:59.609Z,76.48
2018-08-24T21:44:28.219Z,76.38
2018-08-24T21:46:56.808Z,76.50
2018-08-24T21:49:25.356Z,76.99
2018-08-24T21:51:53.976Z,76.53
2018-08-24T21:54:22.520Z,77.25
2018-08-24T21:56:51.101Z,77.32
2018-08-24T21:59:19.702Z,77.36
2018-08-24T22:01:48.305Z,77.26
2018-08-24T22:04:16.941Z,77.15
2018-08-24T22:06:46.150Z,77.68
2018-08-24T22:09:14.799Z,77.19
2018-08-24T22:11:43.674Z,77.29
2018-08-24T22:14:12.280Z,77.64
2018-08-24T22:16:41.138Z,77.98
2018-08-24T22:22:13.489Z,77.38
2018-08-24T22:24:42.080Z,77.26
2018-08-24T22:27:10.691Z,77.29
2018-08-24T22:29:39.291Z,77.36
2018-08-24T22:32:07.883Z,76.99
2018-08-24T22:34:36.425Z,76.45
2018-08-24T22:37:05.028Z,76.66
2018-08-24T22:39:33.735Z,77.77
2018-08-24T22:42:02.324Z,77.96
2018-08-24T22:44:30.948Z,78.61
2018-08-24T22:46:59.579Z,78.01
2018-08-24T22:49:28.183Z,77.49
2018-08-24T22:51:56.758Z,77.80
2018-08-24T22:54:25.356Z,77.88
2018-08-24T22:56:54.000Z,77.95
2018-08-24T22:59:22.655Z,78.79
2018-08-24T23:01:51.236Z,78.28
2018-08-24T23:04:19.808Z,78.43
2018-08-24T23:06:48.412Z,78.36
2018-08-24T23:09:17.202Z,79.44
2018-08-24T23:11:45.810Z,78.49
2018-08-24T23:14:14.407Z,79.09
2018-08-24T23:16:42.955Z,78.66
2018-08-24T23:19:11.552Z,79.00
2018-08-24T23:21:40.096Z,79.13
2018-08-24T23:24:08.664Z,78.25
2018-08-24T23:26:37.227Z,78.87
2018-08-24T23:29:06.223Z,78.07
2018-08-24T23:31:34.794Z,78.04
2018-08-24T23:34:03.385Z,78.12
2018-08-24T23:36:31.938Z,77.78
2018-08-24T23:39:00.455Z,78.53
2018-08-24T23:41:29.047Z,78.09
2018-08-24T23:43:57.729Z,77.94
2018-08-24T23:46:26.325Z,78.05
2018-08-24T23:48:55.699Z,77.69
2018-08-24T23:51:24.364Z,77.17
2018-08-24T23:53:52.926Z,77.37
2018-08-24T23:56:21.477Z,76.27
2018-08-24T23:58:50.034Z,76.82
